TimeEDT,TemperatureF,Dew PointF,Humidity,Sea Level PressureIn,VisibilityMPH,Wind Direction,Wind SpeedMPH,Gust SpeedMPH,PrecipitationIn,Events,Conditions,WindDirDegrees,DateUTC
12:56 AM,35.1,28.0,76,30.08,-9999.0,North,12.7,-,N/A,,Unknown,350,2013-03-26 04:56:00
1:56 AM,35.1,28.0,76,30.09,-9999.0,North,10.4,-,N/A,,Unknown,360,2013-03-26 05:56:00
2:56 AM,34.0,28.0,79,30.09,-9999.0,North,11.5,-,N/A,,Unknown,10,2013-03-26 06:56:00
3:56 AM,34.0,28.0,79,30.08,-9999.0,North,11.5,-,N/A,,Unknown,350,2013-03-26 07:56:00
4:56 AM,34.0,28.0,79,30.08,-9999.0,North,11.5,-,N/A,,Unknown,10,2013-03-26 08:56:00
5:56 AM,34.0,28.0,79,30.08,-9999.0,North,11.5,-,N/A,,Unknown,360,2013-03-26 09:56:00
6:56 AM,34.0,28.0,79,30.10,-9999.0,NNW,8.1,-,N/A,,Unknown,340,2013-03-26 10:56:00
7:56 AM,34.0,28.0,79,30.11,-9999.0,NNW,6.9,-,N/A,,Unknown,340,2013-03-26 11:56:00
8:56 AM,34.0,28.9,82,30.13,-9999.0,North,11.5,-,N/A,,Unknown,350,2013-03-26 12:56:00
9:56 AM,35.1,28.9,78,30.14,-9999.0,North,9.2,-,N/A,,Unknown,360,2013-03-26 13:56:00
10:56 AM,35.1,28.9,78,30.16,-9999.0,North,8.1,-,N/A,,Unknown,10,2013-03-26 14:56:00
11:56 AM,37.0,28.9,73,30.17,-9999.0,NNE,10.4,-,N/A,,Unknown,20,2013-03-26 15:56:00
12:56 PM,36.0,28.0,73,30.17,-9999.0,North,11.5,-,N/A,,Unknown,10,2013-03-26 16:56:00
1:56 PM,36.0,28.0,73,30.17,-9999.0,NNW,12.7,23.0,N/A,,Unknown,340,2013-03-26 17:56:00
2:56 PM,37.0,28.0,70,30.16,-9999.0,NNW,20.7,26.5,N/A,,Unknown,330,2013-03-26 18:56:00
3:56 PM,36.0,28.0,73,30.16,-9999.0,NNW,20.7,26.5,N/A,,Unknown,330,2013-03-26 19:56:00
4:56 PM,36.0,28.0,73,30.16,-9999.0,NW,17.3,-,N/A,,Unknown,320,2013-03-26 20:56:00
5:56 PM,34.0,28.0,79,30.16,-9999.0,NNW,17.3,24.2,N/A,,Unknown,330,2013-03-26 21:56:00
6:56 PM,34.0,28.0,79,30.17,-9999.0,NNW,15.0,-,N/A,,Unknown,340,2013-03-26 22:56:00
7:56 PM,34.0,26.1,73,30.18,-9999.0,NNW,9.2,-,N/A,,Unknown,340,2013-03-26 23:56:00
8:56 PM,33.1,26.1,75,30.17,-9999.0,NNW,5.8,-,N/A,,Unknown,340,2013-03-27 00:56:00
9:56 PM,33.1,26.1,75,30.18,-9999.0,NW,9.2,-,N/A,,Unknown,320,2013-03-27 01:56:00
10:56 PM,33.1,26.1,75,30.18,-9999.0,NW,13.8,-,N/A,,Unknown,320,2013-03-27 02:56:00
11:56 PM,33.1,26.1,75,30.17,-9999.0,NW,13.8,21.9,N/A,,Unknown,320,2013-03-27 03:56:00